sensor_id;sensor_type;location;lat;lon;timestamp;P1;durP1;ratioP1;P2;durP2;ratioP2
72864;SDS011;61000;48.120;11.548;2022-07-17T00:01:13;7.97;;;5.57;;
72864;SDS011;61000;48.120;11.548;2022-07-17T00:03:40;9.57;;;6.20;;
72864;SDS011;61000;48.120;11.548;2022-07-17T00:06:06;9.50;;;5.75;;
72864;SDS011;61000;48.120;11.548;2022-07-17T00:08:34;10.05;;;5.80;;
72864;SDS011;61000;48.120;11.548;2022-07-17T00:11:02;8.40;;;5.38;;
72864;SDS011;61000;48.120;11.548;2022-07-17T00:13:29;7.75;;;5.25;;
72864;SDS011;61000;48.120;11.548;2022-07-17T00:15:56;9.75;;;6.50;;
72864;SDS011;61000;48.120;11.548;2022-07-17T00:18:23;5.90;;;5.30;;
72864;SDS011;61000;48.120;11.548;2022-07-17T00:20:50;7.43;;;5.80;;
72864;SDS011;61000;48.120;11.548;2022-07-17T00:23:17;8.10;;;5.95;;
72864;SDS011;61000;48.120;11.548;2022-07-17T00:25:44;7.75;;;5.80;;
72864;SDS011;61000;48.120;11.548;2022-07-17T00:28:13;9.73;;;5.60;;
72864;SDS011;61000;48.120;11.548;2022-07-17T00:30:40;7.28;;;5.90;;
72864;SDS011;61000;48.120;11.548;2022-07-17T00:33:06;10.70;;;6.80;;
72864;SDS011;61000;48.120;11.548;2022-07-17T00:35:33;10.07;;;7.32;;
72864;SDS011;61000;48.120;11.548;2022-07-17T00:38:00;8.85;;;6.88;;
72864;SDS011;61000;48.120;11.548;2022-07-17T00:40:28;9.95;;;7.13;;
72864;SDS011;61000;48.120;11.548;2022-07-17T00:42:57;9.40;;;7.05;;
72864;SDS011;61000;48.120;11.548;2022-07-17T00:45:25;9.75;;;7.00;;
72864;SDS011;61000;48.120;11.548;2022-07-17T00:47:53;11.02;;;6.40;;
72864;SDS011;61000;48.120;11.548;2022-07-17T00:50:22;8.07;;;5.88;;
72864;SDS011;61000;48.120;11.548;2022-07-17T00:52:50;8.30;;;6.50;;
72864;SDS011;61000;48.120;11.548;2022-07-17T00:55:17;8.60;;;6.45;;
72864;SDS011;61000;48.120;11.548;2022-07-17T00:57:45;7.80;;;6.53;;
72864;SDS011;61000;48.120;11.548;2022-07-17T01:00:14;8.95;;;6.80;;
72864;SDS011;61000;48.120;11.548;2022-07-17T01:02:45;9.70;;;6.97;;
72864;SDS011;61000;48.120;11.548;2022-07-17T01:05:13;10.13;;;6.80;;
72864;SDS011;61000;48.120;11.548;2022-07-17T01:07:40;10.25;;;7.15;;
72864;SDS011;61000;48.120;11.548;2022-07-17T01:10:08;7.47;;;6.68;;
72864;SDS011;61000;48.120;11.548;2022-07-17T01:12:35;8.60;;;7.20;;
72864;SDS011;61000;48.120;11.548;2022-07-17T01:15:03;9.23;;;6.72;;
72864;SDS011;61000;48.120;11.548;2022-07-17T01:17:30;10.55;;;6.68;;
72864;SDS011;61000;48.120;11.548;2022-07-17T01:20:00;9.70;;;6.70;;
72864;SDS011;61000;48.120;11.548;2022-07-17T01:22:28;8.75;;;6.63;;
72864;SDS011;61000;48.120;11.548;2022-07-17T01:24:55;9.35;;;7.07;;
72864;SDS011;61000;48.120;11.548;2022-07-17T01:27:22;9.38;;;7.05;;
72864;SDS011;61000;48.120;11.548;2022-07-17T01:29:49;10.18;;;6.60;;
72864;SDS011;61000;48.120;11.548;2022-07-17T01:32:16;7.75;;;6.72;;
72864;SDS011;61000;48.120;11.548;2022-07-17T01:34:43;7.78;;;6.80;;
72864;SDS011;61000;48.120;11.548;2022-07-17T01:37:10;8.55;;;6.30;;
72864;SDS011;61000;48.120;11.548;2022-07-17T01:39:38;7.57;;;6.28;;
72864;SDS011;61000;48.120;11.548;2022-07-17T01:42:20;7.97;;;5.78;;
72864;SDS011;61000;48.120;11.548;2022-07-17T01:44:48;7.88;;;5.00;;
72864;SDS011;61000;48.120;11.548;2022-07-17T01:47:14;7.78;;;5.10;;
72864;SDS011;61000;48.120;11.548;2022-07-17T01:49:45;7.70;;;4.88;;
72864;SDS011;61000;48.120;11.548;2022-07-17T01:52:13;9.10;;;4.55;;
72864;SDS011;61000;48.120;11.548;2022-07-17T01:54:42;7.57;;;4.63;;
72864;SDS011;61000;48.120;11.548;2022-07-17T01:57:09;10.80;;;4.30;;
72864;SDS011;61000;48.120;11.548;2022-07-17T01:59:37;7.78;;;4.47;;
72864;SDS011;61000;48.120;11.548;2022-07-17T02:02:04;10.60;;;5.55;;
72864;SDS011;61000;48.120;11.548;2022-07-17T02:04:32;9.05;;;5.38;;
72864;SDS011;61000;48.120;11.548;2022-07-17T02:07:00;8.43;;;5.55;;
72864;SDS011;61000;48.120;11.548;2022-07-17T02:09:28;5.15;;;4.47;;
72864;SDS011;61000;48.120;11.548;2022-07-17T02:11:56;5.85;;;4.82;;
72864;SDS011;61000;48.120;11.548;2022-07-17T02:14:23;7.15;;;4.53;;
72864;SDS011;61000;48.120;11.548;2022-07-17T02:16:50;6.78;;;4.50;;
72864;SDS011;61000;48.120;11.548;2022-07-17T02:19:18;5.38;;;4.70;;
72864;SDS011;61000;48.120;11.548;2022-07-17T02:21:44;7.13;;;5.07;;
72864;SDS011;61000;48.120;11.548;2022-07-17T02:24:12;7.22;;;4.38;;
72864;SDS011;61000;48.120;11.548;2022-07-17T02:26:39;8.18;;;4.55;;
72864;SDS011;61000;48.120;11.548;2022-07-17T02:29:07;8.70;;;4.82;;
72864;SDS011;61000;48.120;11.548;2022-07-17T02:31:34;5.78;;;4.70;;
72864;SDS011;61000;48.120;11.548;2022-07-17T02:34:01;6.93;;;4.45;;
72864;SDS011;61000;48.120;11.548;2022-07-17T02:36:28;7.43;;;4.90;;
72864;SDS011;61000;48.120;11.548;2022-07-17T02:38:55;5.53;;;4.72;;
72864;SDS011;61000;48.120;11.548;2022-07-17T02:41:23;7.53;;;4.50;;
72864;SDS011;61000;48.120;11.548;2022-07-17T02:43:50;5.65;;;4.43;;
72864;SDS011;61000;48.120;11.548;2022-07-17T02:46:18;5.38;;;4.60;;
72864;SDS011;61000;48.120;11.548;2022-07-17T02:48:45;6.85;;;4.45;;
72864;SDS011;61000;48.120;11.548;2022-07-17T02:51:12;9.65;;;4.25;;
72864;SDS011;61000;48.120;11.548;2022-07-17T02:53:38;7.72;;;3.97;;
72864;SDS011;61000;48.120;11.548;2022-07-17T02:56:06;8.80;;;4.85;;
72864;SDS011;61000;48.120;11.548;2022-07-17T02:58:33;5.63;;;4.72;;
72864;SDS011;61000;48.120;11.548;2022-07-17T03:00:59;9.13;;;5.40;;
72864;SDS011;61000;48.120;11.548;2022-07-17T03:03:28;8.07;;;6.28;;
72864;SDS011;61000;48.120;11.548;2022-07-17T03:05:55;7.20;;;5.30;;
72864;SDS011;61000;48.120;11.548;2022-07-17T03:08:22;7.25;;;5.65;;
72864;SDS011;61000;48.120;11.548;2022-07-17T03:10:48;7.38;;;5.47;;
72864;SDS011;61000;48.120;11.548;2022-07-17T03:13:16;9.60;;;5.57;;
72864;SDS011;61000;48.120;11.548;2022-07-17T03:15:43;5.65;;;5.05;;
72864;SDS011;61000;48.120;11.548;2022-07-17T03:18:10;9.07;;;5.38;;
72864;SDS011;61000;48.120;11.548;2022-07-17T03:20:39;6.68;;;5.65;;
72864;SDS011;61000;48.120;11.548;2022-07-17T03:23:06;6.45;;;5.60;;
72864;SDS011;61000;48.120;11.548;2022-07-17T03:25:33;7.25;;;5.25;;
72864;SDS011;61000;48.120;11.548;2022-07-17T03:28:00;7.43;;;5.43;;
72864;SDS011;61000;48.120;11.548;2022-07-17T03:30:27;6.75;;;4.85;;
72864;SDS011;61000;48.120;11.548;2022-07-17T03:32:54;7.63;;;4.70;;
72864;SDS011;61000;48.120;11.548;2022-07-17T03:35:21;6.43;;;4.78;;
72864;SDS011;61000;48.120;11.548;2022-07-17T03:37:49;8.10;;;5.32;;
72864;SDS011;61000;48.120;11.548;2022-07-17T03:40:16;7.13;;;5.07;;
72864;SDS011;61000;48.120;11.548;2022-07-17T03:42:42;6.53;;;5.15;;
72864;SDS011;61000;48.120;11.548;2022-07-17T03:45:09;5.47;;;4.95;;
72864;SDS011;61000;48.120;11.548;2022-07-17T03:47:36;7.57;;;4.72;;
72864;SDS011;61000;48.120;11.548;2022-07-17T03:50:04;6.45;;;4.80;;
72864;SDS011;61000;48.120;11.548;2022-07-17T03:52:31;6.53;;;4.78;;
72864;SDS011;61000;48.120;11.548;2022-07-17T03:54:59;6.75;;;4.75;;
72864;SDS011;61000;48.120;11.548;2022-07-17T03:57:26;6.60;;;4.93;;
72864;SDS011;61000;48.120;11.548;2022-07-17T03:59:53;9.45;;;5.15;;
72864;SDS011;61000;48.120;11.548;2022-07-17T04:02:20;7.82;;;4.90;;
72864;SDS011;61000;48.120;11.548;2022-07-17T04:04:47;5.20;;;4.63;;
72864;SDS011;61000;48.120;11.548;2022-07-17T04:07:14;10.50;;;5.30;;
72864;SDS011;61000;48.120;11.548;2022-07-17T04:09:53;9.98;;;4.57;;
72864;SDS011;61000;48.120;11.548;2022-07-17T04:12:22;5.57;;;4.80;;
72864;SDS011;61000;48.120;11.548;2022-07-17T04:14:50;8.27;;;4.68;;
72864;SDS011;61000;48.120;11.548;2022-07-17T04:17:17;9.38;;;5.22;;
72864;SDS011;61000;48.120;11.548;2022-07-17T04:19:44;6.88;;;4.80;;
72864;SDS011;61000;48.120;11.548;2022-07-17T04:22:11;7.93;;;5.25;;
72864;SDS011;61000;48.120;11.548;2022-07-17T04:24:38;7.68;;;5.20;;
72864;SDS011;61000;48.120;11.548;2022-07-17T04:27:05;8.82;;;5.25;;
72864;SDS011;61000;48.120;11.548;2022-07-17T04:29:34;8.93;;;5.03;;
72864;SDS011;61000;48.120;11.548;2022-07-17T04:32:01;6.78;;;4.93;;
72864;SDS011;61000;48.120;11.548;2022-07-17T04:34:28;8.13;;;4.75;;
72864;SDS011;61000;48.120;11.548;2022-07-17T04:36:55;7.10;;;4.95;;
72864;SDS011;61000;48.120;11.548;2022-07-17T04:39:22;10.95;;;5.03;;
72864;SDS011;61000;48.120;11.548;2022-07-17T04:41:49;7.70;;;5.22;;
72864;SDS011;61000;48.120;11.548;2022-07-17T04:44:16;5.30;;;4.78;;
72864;SDS011;61000;48.120;11.548;2022-07-17T04:46:44;8.50;;;4.60;;
72864;SDS011;61000;48.120;11.548;2022-07-17T04:49:12;7.57;;;4.38;;
72864;SDS011;61000;48.120;11.548;2022-07-17T04:51:39;7.32;;;4.50;;
72864;SDS011;61000;48.120;11.548;2022-07-17T04:54:06;7.05;;;4.72;;
72864;SDS011;61000;48.120;11.548;2022-07-17T04:56:33;5.93;;;4.47;;
72864;SDS011;61000;48.120;11.548;2022-07-17T04:59:00;8.57;;;4.68;;
72864;SDS011;61000;48.120;11.548;2022-07-17T05:01:27;6.95;;;5.55;;
72864;SDS011;61000;48.120;11.548;2022-07-17T05:03:55;5.60;;;4.50;;
72864;SDS011;61000;48.120;11.548;2022-07-17T05:06:22;7.97;;;4.72;;
72864;SDS011;61000;48.120;11.548;2022-07-17T05:08:49;9.73;;;5.00;;
72864;SDS011;61000;48.120;11.548;2022-07-17T05:11:16;11.40;;;5.25;;
72864;SDS011;61000;48.120;11.548;2022-07-17T05:13:43;5.20;;;4.70;;
72864;SDS011;61000;48.120;11.548;2022-07-17T05:16:10;9.05;;;6.20;;
72864;SDS011;61000;48.120;11.548;2022-07-17T05:18:37;6.63;;;4.97;;
72864;SDS011;61000;48.120;11.548;2022-07-17T05:21:05;8.25;;;5.60;;
72864;SDS011;61000;48.120;11.548;2022-07-17T05:23:32;6.68;;;5.28;;
72864;SDS011;61000;48.120;11.548;2022-07-17T05:25:59;7.28;;;5.53;;
72864;SDS011;61000;48.120;11.548;2022-07-17T05:28:26;5.88;;;5.20;;
72864;SDS011;61000;48.120;11.548;2022-07-17T05:30:53;8.20;;;4.60;;
72864;SDS011;61000;48.120;11.548;2022-07-17T05:33:20;7.85;;;4.88;;
72864;SDS011;61000;48.120;11.548;2022-07-17T05:35:47;8.40;;;5.28;;
72864;SDS011;61000;48.120;11.548;2022-07-17T05:38:15;7.35;;;4.53;;
72864;SDS011;61000;48.120;11.548;2022-07-17T05:40:42;5.78;;;5.18;;
72864;SDS011;61000;48.120;11.548;2022-07-17T05:43:09;6.82;;;4.93;;
72864;SDS011;61000;48.120;11.548;2022-07-17T05:45:36;8.45;;;5.03;;
72864;SDS011;61000;48.120;11.548;2022-07-17T05:48:04;8.55;;;5.10;;
72864;SDS011;61000;48.120;11.548;2022-07-17T05:50:32;6.40;;;5.07;;
72864;SDS011;61000;48.120;11.548;2022-07-17T05:52:59;6.55;;;5.53;;
72864;SDS011;61000;48.120;11.548;2022-07-17T05:55:28;6.85;;;5.15;;
72864;SDS011;61000;48.120;11.548;2022-07-17T05:57:55;6.65;;;4.53;;
72864;SDS011;61000;48.120;11.548;2022-07-17T06:00:22;7.63;;;4.78;;
72864;SDS011;61000;48.120;11.548;2022-07-17T06:02:49;5.38;;;4.32;;
72864;SDS011;61000;48.120;11.548;2022-07-17T06:05:15;6.65;;;4.30;;
72864;SDS011;61000;48.120;11.548;2022-07-17T06:07:43;8.38;;;4.93;;
72864;SDS011;61000;48.120;11.548;2022-07-17T06:10:09;5.65;;;4.22;;
72864;SDS011;61000;48.120;11.548;2022-07-17T06:12:38;9.68;;;4.90;;
72864;SDS011;61000;48.120;11.548;2022-07-17T06:15:05;6.20;;;4.47;;
72864;SDS011;61000;48.120;11.548;2022-07-17T06:17:32;5.72;;;4.63;;
72864;SDS011;61000;48.120;11.548;2022-07-17T06:19:59;5.38;;;4.45;;
72864;SDS011;61000;48.120;11.548;2022-07-17T06:22:26;4.65;;;4.18;;
72864;SDS011;61000;48.120;11.548;2022-07-17T06:24:53;14.85;;;5.97;;
72864;SDS011;61000;48.120;11.548;2022-07-17T06:27:20;12.40;;;4.20;;
72864;SDS011;61000;48.120;11.548;2022-07-17T06:29:49;5.97;;;3.65;;
72864;SDS011;61000;48.120;11.548;2022-07-17T06:32:16;5.72;;;3.90;;
72864;SDS011;61000;48.120;11.548;2022-07-17T06:34:43;5.53;;;3.33;;
72864;SDS011;61000;48.120;11.548;2022-07-17T06:37:09;4.32;;;3.15;;
72864;SDS011;61000;48.120;11.548;2022-07-17T06:39:36;5.65;;;3.53;;
72864;SDS011;61000;48.120;11.548;2022-07-17T06:42:04;7.18;;;3.17;;
72864;SDS011;61000;48.120;11.548;2022-07-17T06:44:31;8.10;;;3.30;;
72864;SDS011;61000;48.120;11.548;2022-07-17T06:47:00;4.18;;;3.30;;
72864;SDS011;61000;48.120;11.548;2022-07-17T06:49:27;5.60;;;3.45;;
72864;SDS011;61000;48.120;11.548;2022-07-17T06:51:54;6.13;;;3.25;;
72864;SDS011;61000;48.120;11.548;2022-07-17T06:54:21;5.30;;;3.22;;
72864;SDS011;61000;48.120;11.548;2022-07-17T06:56:51;5.15;;;3.55;;
72864;SDS011;61000;48.120;11.548;2022-07-17T06:59:18;6.00;;;3.28;;
72864;SDS011;61000;48.120;11.548;2022-07-17T07:01:45;5.88;;;4.28;;
72864;SDS011;61000;48.120;11.548;2022-07-17T07:04:14;5.90;;;4.18;;
72864;SDS011;61000;48.120;11.548;2022-07-17T07:06:41;6.30;;;3.63;;
72864;SDS011;61000;48.120;11.548;2022-07-17T07:09:08;7.07;;;3.35;;
72864;SDS011;61000;48.120;11.548;2022-07-17T07:11:36;5.15;;;3.55;;
72864;SDS011;61000;48.120;11.548;2022-07-17T07:14:04;5.00;;;3.40;;
72864;SDS011;61000;48.120;11.548;2022-07-17T07:16:31;3.47;;;3.10;;
72864;SDS011;61000;48.120;11.548;2022-07-17T07:18:58;6.53;;;3.90;;
72864;SDS011;61000;48.120;11.548;2022-07-17T07:21:26;4.60;;;2.83;;
72864;SDS011;61000;48.120;11.548;2022-07-17T07:23:53;7.65;;;3.20;;
72864;SDS011;61000;48.120;11.548;2022-07-17T07:26:21;3.28;;;2.75;;
72864;SDS011;61000;48.120;11.548;2022-07-17T07:28:48;3.20;;;2.90;;
72864;SDS011;61000;48.120;11.548;2022-07-17T07:31:15;5.25;;;2.80;;
72864;SDS011;61000;48.120;11.548;2022-07-17T07:33:42;3.42;;;2.85;;
72864;SDS011;61000;48.120;11.548;2022-07-17T07:36:09;6.85;;;2.70;;
72864;SDS011;61000;48.120;11.548;2022-07-17T07:38:38;6.97;;;2.45;;
72864;SDS011;61000;48.120;11.548;2022-07-17T07:41:05;3.35;;;2.60;;
72864;SDS011;61000;48.120;11.548;2022-07-17T07:43:31;3.75;;;2.63;;
72864;SDS011;61000;48.120;11.548;2022-07-17T07:45:58;4.55;;;3.15;;
72864;SDS011;61000;48.120;11.548;2022-07-17T07:48:25;6.22;;;3.70;;
72864;SDS011;61000;48.120;11.548;2022-07-17T07:50:53;2.67;;;2.30;;
72864;SDS011;61000;48.120;11.548;2022-07-17T07:53:20;2.60;;;2.40;;
72864;SDS011;61000;48.120;11.548;2022-07-17T07:55:48;3.40;;;2.47;;
72864;SDS011;61000;48.120;11.548;2022-07-17T07:58:15;2.95;;;2.53;;
72864;SDS011;61000;48.120;11.548;2022-07-17T08:00:43;5.05;;;2.63;;
72864;SDS011;61000;48.120;11.548;2022-07-17T08:03:10;4.10;;;2.42;;
72864;SDS011;61000;48.120;11.548;2022-07-17T08:05:37;5.28;;;2.95;;
72864;SDS011;61000;48.120;11.548;2022-07-17T08:08:04;3.78;;;2.33;;
72864;SDS011;61000;48.120;11.548;2022-07-17T08:10:32;4.78;;;2.80;;
72864;SDS011;61000;48.120;11.548;2022-07-17T08:13:01;3.25;;;2.42;;
72864;SDS011;61000;48.120;11.548;2022-07-17T08:15:28;2.20;;;2.00;;
72864;SDS011;61000;48.120;11.548;2022-07-17T08:17:55;2.60;;;2.40;;
72864;SDS011;61000;48.120;11.548;2022-07-17T08:20:22;2.75;;;1.90;;
72864;SDS011;61000;48.120;11.548;2022-07-17T08:22:49;3.90;;;2.38;;
72864;SDS011;61000;48.120;11.548;2022-07-17T08:25:16;3.28;;;2.45;;
72864;SDS011;61000;48.120;11.548;2022-07-17T08:27:44;3.30;;;2.60;;
72864;SDS011;61000;48.120;11.548;2022-07-17T08:30:13;2.97;;;2.38;;
72864;SDS011;61000;48.120;11.548;2022-07-17T08:32:41;8.32;;;2.70;;
72864;SDS011;61000;48.120;11.548;2022-07-17T08:35:08;2.90;;;2.58;;
72864;SDS011;61000;48.120;11.548;2022-07-17T08:37:43;3.20;;;2.30;;
72864;SDS011;61000;48.120;11.548;2022-07-17T08:40:17;2.40;;;2.20;;
72864;SDS011;61000;48.120;11.548;2022-07-17T08:42:46;3.17;;;2.00;;
72864;SDS011;61000;48.120;11.548;2022-07-17T08:45:14;3.88;;;2.33;;
72864;SDS011;61000;48.120;11.548;2022-07-17T08:47:41;3.50;;;2.40;;
72864;SDS011;61000;48.120;11.548;2022-07-17T08:50:08;3.35;;;2.30;;
72864;SDS011;61000;48.120;11.548;2022-07-17T08:52:37;3.33;;;2.25;;
72864;SDS011;61000;48.120;11.548;2022-07-17T08:55:07;2.72;;;2.53;;
72864;SDS011;61000;48.120;11.548;2022-07-17T08:57:36;2.80;;;2.60;;
72864;SDS011;61000;48.120;11.548;2022-07-17T09:00:05;5.32;;;2.35;;
72864;SDS011;61000;48.120;11.548;2022-07-17T09:02:34;7.28;;;2.58;;
72864;SDS011;61000;48.120;11.548;2022-07-17T09:05:01;8.43;;;2.20;;
72864;SDS011;61000;48.120;11.548;2022-07-17T09:07:28;5.50;;;2.25;;
72864;SDS011;61000;48.120;11.548;2022-07-17T09:09:56;4.47;;;2.38;;
72864;SDS011;61000;48.120;11.548;2022-07-17T09:12:24;2.75;;;2.10;;
72864;SDS011;61000;48.120;11.548;2022-07-17T09:14:52;3.35;;;2.30;;
72864;SDS011;61000;48.120;11.548;2022-07-17T09:17:20;1.95;;;1.85;;
72864;SDS011;61000;48.120;11.548;2022-07-17T09:19:49;3.80;;;2.05;;
72864;SDS011;61000;48.120;11.548;2022-07-17T09:22:16;2.75;;;2.20;;
72864;SDS011;61000;48.120;11.548;2022-07-17T09:24:45;2.30;;;1.80;;
72864;SDS011;61000;48.120;11.548;2022-07-17T09:27:15;2.55;;;2.03;;
72864;SDS011;61000;48.120;11.548;2022-07-17T09:29:54;5.38;;;1.85;;
72864;SDS011;61000;48.120;11.548;2022-07-17T09:32:23;2.53;;;1.58;;
72864;SDS011;61000;48.120;11.548;2022-07-17T09:34:54;4.82;;;1.52;;
72864;SDS011;61000;48.120;11.548;2022-07-17T09:37:24;2.55;;;1.80;;
72864;SDS011;61000;48.120;11.548;2022-07-17T09:39:52;3.80;;;1.70;;
72864;SDS011;61000;48.120;11.548;2022-07-17T09:42:23;2.25;;;1.70;;
72864;SDS011;61000;48.120;11.548;2022-07-17T09:44:57;3.78;;;1.48;;
72864;SDS011;61000;48.120;11.548;2022-07-17T09:47:26;5.97;;;2.00;;
72864;SDS011;61000;48.120;11.548;2022-07-17T09:49:56;3.60;;;1.55;;
72864;SDS011;61000;48.120;11.548;2022-07-17T09:52:27;4.15;;;1.77;;
72864;SDS011;61000;48.120;11.548;2022-07-17T09:54:56;2.78;;;1.40;;
72864;SDS011;61000;48.120;11.548;2022-07-17T09:57:33;2.30;;;1.80;;
72864;SDS011;61000;48.120;11.548;2022-07-17T10:00:02;3.22;;;1.70;;
72864;SDS011;61000;48.120;11.548;2022-07-17T10:02:39;1.80;;;1.67;;
72864;SDS011;61000;48.120;11.548;2022-07-17T10:05:08;4.25;;;1.67;;
72864;SDS011;61000;48.120;11.548;2022-07-17T10:07:37;1.77;;;1.50;;
72864;SDS011;61000;48.120;11.548;2022-07-17T10:10:06;4.03;;;1.40;;
72864;SDS011;61000;48.120;11.548;2022-07-17T10:12:34;3.25;;;2.22;;
72864;SDS011;61000;48.120;11.548;2022-07-17T10:15:03;2.08;;;1.55;;
72864;SDS011;61000;48.120;11.548;2022-07-17T10:17:31;3.00;;;1.73;;
72864;SDS011;61000;48.120;11.548;2022-07-17T10:19:58;4.78;;;1.70;;
72864;SDS011;61000;48.120;11.548;2022-07-17T10:22:27;4.40;;;1.60;;
72864;SDS011;61000;48.120;11.548;2022-07-17T10:25:06;2.88;;;1.63;;
72864;SDS011;61000;48.120;11.548;2022-07-17T10:27:35;1.90;;;1.40;;
72864;SDS011;61000;48.120;11.548;2022-07-17T10:30:02;3.10;;;1.55;;
72864;SDS011;61000;48.120;11.548;2022-07-17T10:32:31;2.78;;;1.52;;
72864;SDS011;61000;48.120;11.548;2022-07-17T10:35:00;1.92;;;1.83;;
72864;SDS011;61000;48.120;11.548;2022-07-17T10:37:32;3.22;;;1.55;;
72864;SDS011;61000;48.120;11.548;2022-07-17T10:40:06;3.60;;;1.70;;
72864;SDS011;61000;48.120;11.548;2022-07-17T10:42:37;2.13;;;1.55;;
72864;SDS011;61000;48.120;11.548;2022-07-17T10:45:06;1.65;;;1.50;;
72864;SDS011;61000;48.120;11.548;2022-07-17T10:47:41;4.47;;;1.67;;
72864;SDS011;61000;48.120;11.548;2022-07-17T10:50:17;4.07;;;1.88;;
72864;SDS011;61000;48.120;11.548;2022-07-17T10:52:57;2.03;;;1.73;;
72864;SDS011;61000;48.120;11.548;2022-07-17T10:55:29;4.47;;;2.15;;
72864;SDS011;61000;48.120;11.548;2022-07-17T10:57:56;2.33;;;2.13;;
72864;SDS011;61000;48.120;11.548;2022-07-17T11:00:24;3.92;;;2.10;;
72864;SDS011;61000;48.120;11.548;2022-07-17T11:02:51;3.15;;;1.70;;
72864;SDS011;61000;48.120;11.548;2022-07-17T11:05:18;2.55;;;1.80;;
72864;SDS011;61000;48.120;11.548;2022-07-17T11:07:49;2.10;;;1.73;;
72864;SDS011;61000;48.120;11.548;2022-07-17T11:10:18;2.03;;;1.80;;
72864;SDS011;61000;48.120;11.548;2022-07-17T11:12:45;2.63;;;1.88;;
72864;SDS011;61000;48.120;11.548;2022-07-17T11:15:12;2.28;;;1.98;;
72864;SDS011;61000;48.120;11.548;2022-07-17T11:17:43;2.40;;;2.05;;
72864;SDS011;61000;48.120;11.548;2022-07-17T11:20:11;3.80;;;1.80;;
72864;SDS011;61000;48.120;11.548;2022-07-17T11:22:38;1.80;;;1.70;;
72864;SDS011;61000;48.120;11.548;2022-07-17T11:25:08;2.15;;;1.95;;
72864;SDS011;61000;48.120;11.548;2022-07-17T11:27:38;5.35;;;2.08;;
72864;SDS011;61000;48.120;11.548;2022-07-17T11:30:05;2.63;;;1.92;;
72864;SDS011;61000;48.120;11.548;2022-07-17T11:32:38;3.17;;;2.08;;
72864;SDS011;61000;48.120;11.548;2022-07-17T11:35:16;3.00;;;2.10;;
72864;SDS011;61000;48.120;11.548;2022-07-17T11:37:43;3.72;;;2.03;;
72864;SDS011;61000;48.120;11.548;2022-07-17T11:40:11;2.30;;;2.03;;
72864;SDS011;61000;48.120;11.548;2022-07-17T11:42:41;5.80;;;2.13;;
72864;SDS011;61000;48.120;11.548;2022-07-17T11:45:09;4.55;;;1.90;;
72864;SDS011;61000;48.120;11.548;2022-07-17T11:47:36;3.03;;;2.30;;
72864;SDS011;61000;48.120;11.548;2022-07-17T11:50:11;2.38;;;2.10;;
72864;SDS011;61000;48.120;11.548;2022-07-17T11:52:40;4.75;;;2.20;;
72864;SDS011;61000;48.120;11.548;2022-07-17T11:55:09;4.85;;;2.38;;
72864;SDS011;61000;48.120;11.548;2022-07-17T11:57:45;1.95;;;1.80;;
72864;SDS011;61000;48.120;11.548;2022-07-17T12:00:14;1.98;;;1.75;;
72864;SDS011;61000;48.120;11.548;2022-07-17T12:02:43;3.95;;;1.83;;
72864;SDS011;61000;48.120;11.548;2022-07-17T12:05:10;2.58;;;1.73;;
72864;SDS011;61000;48.120;11.548;2022-07-17T12:07:44;2.75;;;1.77;;
72864;SDS011;61000;48.120;11.548;2022-07-17T12:10:14;1.83;;;1.73;;
72864;SDS011;61000;48.120;11.548;2022-07-17T12:12:54;7.07;;;2.40;;
72864;SDS011;61000;48.120;11.548;2022-07-17T12:18:01;3.45;;;1.80;;
72864;SDS011;61000;48.120;11.548;2022-07-17T12:20:39;2.10;;;1.92;;
72864;SDS011;61000;48.120;11.548;2022-07-17T12:23:08;3.15;;;1.95;;
72864;SDS011;61000;48.120;11.548;2022-07-17T12:25:35;3.40;;;1.83;;
72864;SDS011;61000;48.120;11.548;2022-07-17T12:28:03;2.20;;;2.00;;
72864;SDS011;61000;48.120;11.548;2022-07-17T12:30:33;2.58;;;2.13;;
72864;SDS011;61000;48.120;11.548;2022-07-17T12:32:59;2.85;;;2.10;;
72864;SDS011;61000;48.120;11.548;2022-07-17T12:35:26;3.10;;;2.03;;
72864;SDS011;61000;48.120;11.548;2022-07-17T12:37:53;1.63;;;1.50;;
72864;SDS011;61000;48.120;11.548;2022-07-17T12:40:20;1.98;;;1.88;;
72864;SDS011;61000;48.120;11.548;2022-07-17T12:42:47;2.58;;;1.75;;
72864;SDS011;61000;48.120;11.548;2022-07-17T12:45:15;3.60;;;1.80;;
72864;SDS011;61000;48.120;11.548;2022-07-17T12:47:42;6.05;;;2.60;;
72864;SDS011;61000;48.120;11.548;2022-07-17T12:50:09;2.88;;;2.22;;
72864;SDS011;61000;48.120;11.548;2022-07-17T12:52:36;5.53;;;2.35;;
72864;SDS011;61000;48.120;11.548;2022-07-17T12:55:03;3.58;;;1.90;;
72864;SDS011;61000;48.120;11.548;2022-07-17T12:57:32;4.18;;;2.03;;
72864;SDS011;61000;48.120;11.548;2022-07-17T12:59:59;3.20;;;1.77;;
72864;SDS011;61000;48.120;11.548;2022-07-17T13:02:27;6.95;;;1.90;;
72864;SDS011;61000;48.120;11.548;2022-07-17T13:04:54;1.98;;;1.73;;
72864;SDS011;61000;48.120;11.548;2022-07-17T13:07:21;1.58;;;1.48;;
72864;SDS011;61000;48.120;11.548;2022-07-17T13:09:48;4.15;;;1.92;;
72864;SDS011;61000;48.120;11.548;2022-07-17T13:12:15;3.47;;;1.90;;
72864;SDS011;61000;48.120;11.548;2022-07-17T13:14:42;2.75;;;2.00;;
72864;SDS011;61000;48.120;11.548;2022-07-17T13:17:09;2.05;;;1.73;;
72864;SDS011;61000;48.120;11.548;2022-07-17T13:19:37;5.57;;;1.95;;
72864;SDS011;61000;48.120;11.548;2022-07-17T13:22:04;3.42;;;1.80;;
72864;SDS011;61000;48.120;11.548;2022-07-17T13:24:31;1.92;;;1.70;;
72864;SDS011;61000;48.120;11.548;2022-07-17T13:26:58;2.38;;;1.92;;
72864;SDS011;61000;48.120;11.548;2022-07-17T13:29:25;2.75;;;1.65;;
72864;SDS011;61000;48.120;11.548;2022-07-17T13:31:52;3.47;;;1.90;;
72864;SDS011;61000;48.120;11.548;2022-07-17T13:34:19;2.00;;;1.80;;
72864;SDS011;61000;48.120;11.548;2022-07-17T13:36:48;2.33;;;2.10;;
72864;SDS011;61000;48.120;11.548;2022-07-17T13:39:15;2.67;;;1.45;;
72864;SDS011;61000;48.120;11.548;2022-07-17T13:41:42;1.83;;;1.70;;
72864;SDS011;61000;48.120;11.548;2022-07-17T13:44:09;2.92;;;1.85;;
72864;SDS011;61000;48.120;11.548;2022-07-17T13:46:36;2.33;;;1.58;;
72864;SDS011;61000;48.120;11.548;2022-07-17T13:49:03;2.67;;;1.83;;
72864;SDS011;61000;48.120;11.548;2022-07-17T13:51:30;1.85;;;1.60;;
72864;SDS011;61000;48.120;11.548;2022-07-17T13:53:59;4.47;;;1.58;;
72864;SDS011;61000;48.120;11.548;2022-07-17T13:56:27;4.03;;;1.50;;
72864;SDS011;61000;48.120;11.548;2022-07-17T13:58:54;1.90;;;1.70;;
72864;SDS011;61000;48.120;11.548;2022-07-17T14:01:20;3.63;;;1.50;;
72864;SDS011;61000;48.120;11.548;2022-07-17T14:03:47;1.80;;;1.63;;
72864;SDS011;61000;48.120;11.548;2022-07-17T14:06:14;4.32;;;1.30;;
72864;SDS011;61000;48.120;11.548;2022-07-17T14:08:41;3.00;;;2.00;;
72864;SDS011;61000;48.120;11.548;2022-07-17T14:11:10;2.15;;;2.05;;
72864;SDS011;61000;48.120;11.548;2022-07-17T14:13:38;4.32;;;1.80;;
72864;SDS011;61000;48.120;11.548;2022-07-17T14:16:06;3.38;;;1.65;;
72864;SDS011;61000;48.120;11.548;2022-07-17T14:18:33;3.15;;;1.83;;
72864;SDS011;61000;48.120;11.548;2022-07-17T14:21:00;3.50;;;1.60;;
72864;SDS011;61000;48.120;11.548;2022-07-17T14:23:27;3.00;;;1.60;;
72864;SDS011;61000;48.120;11.548;2022-07-17T14:25:54;1.58;;;1.45;;
72864;SDS011;61000;48.120;11.548;2022-07-17T14:28:23;2.92;;;1.60;;
72864;SDS011;61000;48.120;11.548;2022-07-17T14:30:50;2.00;;;1.80;;
72864;SDS011;61000;48.120;11.548;2022-07-17T14:33:16;2.35;;;1.90;;
72864;SDS011;61000;48.120;11.548;2022-07-17T14:35:43;3.80;;;1.70;;
72864;SDS011;61000;48.120;11.548;2022-07-17T14:38:10;1.55;;;1.45;;
72864;SDS011;61000;48.120;11.548;2022-07-17T14:40:37;1.98;;;1.77;;